sensor_id;sensor_type;location;lat;lon;timestamp;P1;durP1;ratioP1;P2;durP2;ratioP2
80381;SDS011;69692;55.820;37.490;2023-07-31T00:01:34;9.60;;;7.13;;
80381;SDS011;69692;55.820;37.490;2023-07-31T00:03:59;12.95;;;7.18;;
80381;SDS011;69692;55.820;37.490;2023-07-31T00:06:25;9.77;;;5.85;;
80381;SDS011;69692;55.820;37.490;2023-07-31T00:08:51;10.02;;;5.65;;
80381;SDS011;69692;55.820;37.490;2023-07-31T00:11:17;8.65;;;5.40;;
80381;SDS011;69692;55.820;37.490;2023-07-31T00:13:43;7.47;;;5.57;;
80381;SDS011;69692;55.820;37.490;2023-07-31T00:16:08;8.95;;;6.57;;
80381;SDS011;69692;55.820;37.490;2023-07-31T00:18:34;7.88;;;5.88;;
80381;SDS011;69692;55.820;37.490;2023-07-31T00:21:00;7.97;;;5.93;;
80381;SDS011;69692;55.820;37.490;2023-07-31T00:23:26;8.18;;;5.35;;
80381;SDS011;69692;55.820;37.490;2023-07-31T00:25:51;10.80;;;7.00;;
80381;SDS011;69692;55.820;37.490;2023-07-31T00:28:17;10.50;;;6.57;;
80381;SDS011;69692;55.820;37.490;2023-07-31T00:30:43;9.23;;;7.05;;
80381;SDS011;69692;55.820;37.490;2023-07-31T00:33:09;9.20;;;6.25;;
80381;SDS011;69692;55.820;37.490;2023-07-31T00:35:36;8.82;;;6.20;;
80381;SDS011;69692;55.820;37.490;2023-07-31T00:38:02;10.90;;;6.70;;
80381;SDS011;69692;55.820;37.490;2023-07-31T00:40:28;7.28;;;5.07;;
80381;SDS011;69692;55.820;37.490;2023-07-31T00:42:53;8.90;;;5.70;;
80381;SDS011;69692;55.820;37.490;2023-07-31T00:45:19;7.55;;;4.90;;
80381;SDS011;69692;55.820;37.490;2023-07-31T00:47:48;7.68;;;5.10;;
80381;SDS011;69692;55.820;37.490;2023-07-31T00:50:14;7.75;;;6.32;;
80381;SDS011;69692;55.820;37.490;2023-07-31T00:52:40;8.35;;;5.38;;
80381;SDS011;69692;55.820;37.490;2023-07-31T00:55:06;8.60;;;5.50;;
80381;SDS011;69692;55.820;37.490;2023-07-31T00:57:32;8.43;;;5.75;;
80381;SDS011;69692;55.820;37.490;2023-07-31T01:00:00;6.53;;;4.80;;
80381;SDS011;69692;55.820;37.490;2023-07-31T01:02:26;6.07;;;4.60;;
80381;SDS011;69692;55.820;37.490;2023-07-31T01:04:52;8.02;;;6.22;;
80381;SDS011;69692;55.820;37.490;2023-07-31T01:07:22;6.35;;;5.00;;
80381;SDS011;69692;55.820;37.490;2023-07-31T01:10:08;7.22;;;4.80;;
80381;SDS011;69692;55.820;37.490;2023-07-31T01:12:41;6.82;;;5.28;;
80381;SDS011;69692;55.820;37.490;2023-07-31T01:15:10;6.72;;;5.20;;
80381;SDS011;69692;55.820;37.490;2023-07-31T01:17:37;5.43;;;4.28;;
80381;SDS011;69692;55.820;37.490;2023-07-31T01:20:04;7.82;;;5.60;;
80381;SDS011;69692;55.820;37.490;2023-07-31T01:22:45;11.07;;;4.63;;
80381;SDS011;69692;55.820;37.490;2023-07-31T01:31:14;7.03;;;4.75;;
80381;SDS011;69692;55.820;37.490;2023-07-31T01:33:44;9.73;;;4.72;;
80381;SDS011;69692;55.820;37.490;2023-07-31T01:36:11;7.75;;;4.70;;
80381;SDS011;69692;55.820;37.490;2023-07-31T01:38:37;7.18;;;4.82;;
80381;SDS011;69692;55.820;37.490;2023-07-31T01:41:03;8.15;;;4.85;;
80381;SDS011;69692;55.820;37.490;2023-07-31T01:43:28;9.43;;;4.75;;
80381;SDS011;69692;55.820;37.490;2023-07-31T01:45:55;7.05;;;4.75;;
80381;SDS011;69692;55.820;37.490;2023-07-31T01:48:20;8.10;;;5.07;;
80381;SDS011;69692;55.820;37.490;2023-07-31T01:50:46;10.98;;;6.72;;
80381;SDS011;69692;55.820;37.490;2023-07-31T01:53:14;7.53;;;5.32;;
80381;SDS011;69692;55.820;37.490;2023-07-31T01:55:40;8.20;;;4.72;;
80381;SDS011;69692;55.820;37.490;2023-07-31T01:58:07;8.32;;;4.53;;
80381;SDS011;69692;55.820;37.490;2023-07-31T02:00:33;6.82;;;4.88;;
80381;SDS011;69692;55.820;37.490;2023-07-31T02:03:00;6.35;;;5.30;;
80381;SDS011;69692;55.820;37.490;2023-07-31T02:05:26;8.52;;;5.20;;
80381;SDS011;69692;55.820;37.490;2023-07-31T02:07:52;7.65;;;5.28;;
80381;SDS011;69692;55.820;37.490;2023-07-31T02:10:17;6.80;;;5.15;;
80381;SDS011;69692;55.820;37.490;2023-07-31T02:12:45;10.55;;;5.75;;
80381;SDS011;69692;55.820;37.490;2023-07-31T02:15:11;5.93;;;4.43;;
80381;SDS011;69692;55.820;37.490;2023-07-31T02:17:37;9.30;;;5.38;;
80381;SDS011;69692;55.820;37.490;2023-07-31T02:20:03;6.47;;;5.10;;
80381;SDS011;69692;55.820;37.490;2023-07-31T02:22:32;8.65;;;4.25;;
80381;SDS011;69692;55.820;37.490;2023-07-31T02:24:58;8.07;;;5.78;;
80381;SDS011;69692;55.820;37.490;2023-07-31T02:27:24;10.15;;;7.43;;
80381;SDS011;69692;55.820;37.490;2023-07-31T02:29:53;6.88;;;5.10;;
80381;SDS011;69692;55.820;37.490;2023-07-31T02:32:20;9.18;;;5.88;;
80381;SDS011;69692;55.820;37.490;2023-07-31T02:34:46;10.38;;;7.43;;
80381;SDS011;69692;55.820;37.490;2023-07-31T02:37:12;13.50;;;8.00;;
80381;SDS011;69692;55.820;37.490;2023-07-31T02:39:38;9.65;;;6.03;;
80381;SDS011;69692;55.820;37.490;2023-07-31T02:42:04;7.40;;;5.40;;
80381;SDS011;69692;55.820;37.490;2023-07-31T02:44:31;8.07;;;6.18;;
80381;SDS011;69692;55.820;37.490;2023-07-31T02:46:56;7.70;;;4.70;;
80381;SDS011;69692;55.820;37.490;2023-07-31T02:49:22;7.68;;;5.28;;
80381;SDS011;69692;55.820;37.490;2023-07-31T02:51:48;8.30;;;5.05;;
80381;SDS011;69692;55.820;37.490;2023-07-31T02:54:14;7.22;;;4.55;;
80381;SDS011;69692;55.820;37.490;2023-07-31T02:56:40;6.40;;;4.70;;
80381;SDS011;69692;55.820;37.490;2023-07-31T02:59:05;10.75;;;4.38;;
80381;SDS011;69692;55.820;37.490;2023-07-31T03:01:31;9.02;;;6.47;;
80381;SDS011;69692;55.820;37.490;2023-07-31T03:03:57;5.82;;;4.00;;
80381;SDS011;69692;55.820;37.490;2023-07-31T03:06:23;6.57;;;4.45;;
80381;SDS011;69692;55.820;37.490;2023-07-31T03:08:48;7.13;;;5.32;;
80381;SDS011;69692;55.820;37.490;2023-07-31T03:11:14;7.10;;;5.15;;
80381;SDS011;69692;55.820;37.490;2023-07-31T03:13:40;7.53;;;4.30;;
80381;SDS011;69692;55.820;37.490;2023-07-31T03:16:06;7.22;;;4.38;;
80381;SDS011;69692;55.820;37.490;2023-07-31T03:18:31;10.27;;;4.55;;
80381;SDS011;69692;55.820;37.490;2023-07-31T03:20:57;7.40;;;4.80;;
80381;SDS011;69692;55.820;37.490;2023-07-31T03:23:23;7.28;;;4.38;;
80381;SDS011;69692;55.820;37.490;2023-07-31T03:26:00;7.53;;;4.03;;
80381;SDS011;69692;55.820;37.490;2023-07-31T03:28:29;7.38;;;3.85;;
80381;SDS011;69692;55.820;37.490;2023-07-31T03:30:55;8.02;;;5.30;;
80381;SDS011;69692;55.820;37.490;2023-07-31T03:33:21;4.95;;;3.97;;
80381;SDS011;69692;55.820;37.490;2023-07-31T03:35:47;6.93;;;4.20;;
80381;SDS011;69692;55.820;37.490;2023-07-31T03:38:13;7.65;;;3.80;;
80381;SDS011;69692;55.820;37.490;2023-07-31T03:40:39;5.38;;;3.83;;
80381;SDS011;69692;55.820;37.490;2023-07-31T03:43:05;6.90;;;4.43;;
80381;SDS011;69692;55.820;37.490;2023-07-31T03:45:31;6.50;;;4.60;;
80381;SDS011;69692;55.820;37.490;2023-07-31T03:47:57;6.80;;;4.03;;
80381;SDS011;69692;55.820;37.490;2023-07-31T03:50:25;9.75;;;4.55;;
80381;SDS011;69692;55.820;37.490;2023-07-31T03:52:52;7.82;;;4.07;;
80381;SDS011;69692;55.820;37.490;2023-07-31T03:55:18;9.15;;;3.97;;
80381;SDS011;69692;55.820;37.490;2023-07-31T03:57:45;5.60;;;4.15;;
80381;SDS011;69692;55.820;37.490;2023-07-31T04:00:11;7.35;;;5.03;;
80381;SDS011;69692;55.820;37.490;2023-07-31T04:02:38;10.70;;;4.60;;
80381;SDS011;69692;55.820;37.490;2023-07-31T04:05:04;5.45;;;3.63;;
80381;SDS011;69692;55.820;37.490;2023-07-31T04:07:31;9.00;;;3.92;;
80381;SDS011;69692;55.820;37.490;2023-07-31T04:09:57;6.30;;;3.92;;
80381;SDS011;69692;55.820;37.490;2023-07-31T04:12:23;8.00;;;3.70;;
80381;SDS011;69692;55.820;37.490;2023-07-31T04:14:49;4.97;;;3.33;;
80381;SDS011;69692;55.820;37.490;2023-07-31T04:17:17;7.13;;;5.03;;
80381;SDS011;69692;55.820;37.490;2023-07-31T04:19:43;5.75;;;3.53;;
80381;SDS011;69692;55.820;37.490;2023-07-31T04:22:09;6.53;;;3.78;;
80381;SDS011;69692;55.820;37.490;2023-07-31T04:24:35;7.63;;;4.28;;
80381;SDS011;69692;55.820;37.490;2023-07-31T04:27:01;8.07;;;4.45;;
80381;SDS011;69692;55.820;37.490;2023-07-31T04:29:27;6.75;;;4.15;;
80381;SDS011;69692;55.820;37.490;2023-07-31T04:31:53;6.50;;;3.55;;
80381;SDS011;69692;55.820;37.490;2023-07-31T04:34:18;8.65;;;4.10;;
80381;SDS011;69692;55.820;37.490;2023-07-31T04:36:44;6.70;;;4.30;;
80381;SDS011;69692;55.820;37.490;2023-07-31T04:39:10;8.55;;;4.07;;
80381;SDS011;69692;55.820;37.490;2023-07-31T04:41:36;9.07;;;4.05;;
80381;SDS011;69692;55.820;37.490;2023-07-31T04:44:01;9.52;;;3.55;;
80381;SDS011;69692;55.820;37.490;2023-07-31T04:46:29;5.72;;;3.60;;
80381;SDS011;69692;55.820;37.490;2023-07-31T04:48:55;7.30;;;3.03;;
80381;SDS011;69692;55.820;37.490;2023-07-31T04:51:22;8.10;;;3.75;;
80381;SDS011;69692;55.820;37.490;2023-07-31T04:53:49;5.60;;;3.38;;
80381;SDS011;69692;55.820;37.490;2023-07-31T04:56:16;6.68;;;3.50;;
80381;SDS011;69692;55.820;37.490;2023-07-31T04:58:42;6.72;;;3.50;;
80381;SDS011;69692;55.820;37.490;2023-07-31T05:01:08;7.65;;;4.28;;
80381;SDS011;69692;55.820;37.490;2023-07-31T05:03:34;7.03;;;3.88;;
80381;SDS011;69692;55.820;37.490;2023-07-31T05:06:00;8.70;;;4.13;;
80381;SDS011;69692;55.820;37.490;2023-07-31T05:08:26;8.20;;;3.03;;
80381;SDS011;69692;55.820;37.490;2023-07-31T05:10:52;7.13;;;2.85;;
80381;SDS011;69692;55.820;37.490;2023-07-31T05:13:18;7.28;;;3.70;;
80381;SDS011;69692;55.820;37.490;2023-07-31T05:15:44;4.88;;;3.63;;
80381;SDS011;69692;55.820;37.490;2023-07-31T05:18:10;7.30;;;3.45;;
80381;SDS011;69692;55.820;37.490;2023-07-31T05:20:36;7.53;;;3.65;;
80381;SDS011;69692;55.820;37.490;2023-07-31T05:23:02;7.20;;;3.67;;
80381;SDS011;69692;55.820;37.490;2023-07-31T05:25:28;6.32;;;3.33;;
80381;SDS011;69692;55.820;37.490;2023-07-31T05:27:54;6.20;;;3.55;;
80381;SDS011;69692;55.820;37.490;2023-07-31T05:30:19;6.25;;;3.47;;
80381;SDS011;69692;55.820;37.490;2023-07-31T05:32:46;5.28;;;3.42;;
80381;SDS011;69692;55.820;37.490;2023-07-31T05:35:12;6.68;;;4.60;;
80381;SDS011;69692;55.820;37.490;2023-07-31T05:37:38;9.30;;;3.92;;
80381;SDS011;69692;55.820;37.490;2023-07-31T05:40:04;7.38;;;4.20;;
80381;SDS011;69692;55.820;37.490;2023-07-31T05:42:31;6.20;;;3.25;;
80381;SDS011;69692;55.820;37.490;2023-07-31T05:44:57;7.68;;;3.40;;
80381;SDS011;69692;55.820;37.490;2023-07-31T05:47:23;7.03;;;3.50;;
80381;SDS011;69692;55.820;37.490;2023-07-31T05:49:49;6.43;;;3.05;;
80381;SDS011;69692;55.820;37.490;2023-07-31T05:52:18;9.45;;;4.18;;
80381;SDS011;69692;55.820;37.490;2023-07-31T05:54:44;8.52;;;3.63;;
80381;SDS011;69692;55.820;37.490;2023-07-31T05:57:11;8.43;;;3.53;;
80381;SDS011;69692;55.820;37.490;2023-07-31T05:59:37;7.15;;;3.97;;
80381;SDS011;69692;55.820;37.490;2023-07-31T06:02:03;8.68;;;3.17;;
80381;SDS011;69692;55.820;37.490;2023-07-31T06:04:30;9.55;;;4.18;;
80381;SDS011;69692;55.820;37.490;2023-07-31T06:06:56;6.13;;;4.30;;
80381;SDS011;69692;55.820;37.490;2023-07-31T06:09:22;6.63;;;3.58;;
80381;SDS011;69692;55.820;37.490;2023-07-31T06:11:48;6.05;;;3.13;;
80381;SDS011;69692;55.820;37.490;2023-07-31T06:14:14;7.82;;;3.50;;
80381;SDS011;69692;55.820;37.490;2023-07-31T06:16:40;6.88;;;3.03;;
80381;SDS011;69692;55.820;37.490;2023-07-31T06:19:06;8.07;;;4.20;;
80381;SDS011;69692;55.820;37.490;2023-07-31T06:21:33;8.90;;;3.53;;
80381;SDS011;69692;55.820;37.490;2023-07-31T06:23:59;6.38;;;3.38;;
80381;SDS011;69692;55.820;37.490;2023-07-31T06:26:24;7.03;;;3.10;;
80381;SDS011;69692;55.820;37.490;2023-07-31T06:28:50;6.80;;;3.00;;
80381;SDS011;69692;55.820;37.490;2023-07-31T06:31:16;6.45;;;2.75;;
80381;SDS011;69692;55.820;37.490;2023-07-31T06:33:45;9.25;;;3.30;;
80381;SDS011;69692;55.820;37.490;2023-07-31T06:36:11;11.75;;;3.40;;
80381;SDS011;69692;55.820;37.490;2023-07-31T06:38:37;7.25;;;4.25;;
80381;SDS011;69692;55.820;37.490;2023-07-31T06:41:03;8.23;;;3.80;;
80381;SDS011;69692;55.820;37.490;2023-07-31T06:43:29;5.22;;;2.67;;
80381;SDS011;69692;55.820;37.490;2023-07-31T06:45:55;7.30;;;3.17;;
80381;SDS011;69692;55.820;37.490;2023-07-31T06:48:20;7.70;;;3.33;;
80381;SDS011;69692;55.820;37.490;2023-07-31T06:50:46;6.82;;;2.65;;
80381;SDS011;69692;55.820;37.490;2023-07-31T06:53:12;8.73;;;2.95;;
80381;SDS011;69692;55.820;37.490;2023-07-31T06:55:38;7.35;;;2.78;;
80381;SDS011;69692;55.820;37.490;2023-07-31T06:58:04;8.07;;;2.63;;
80381;SDS011;69692;55.820;37.490;2023-07-31T07:00:29;3.60;;;2.10;;
80381;SDS011;69692;55.820;37.490;2023-07-31T07:02:55;4.93;;;2.50;;
80381;SDS011;69692;55.820;37.490;2023-07-31T07:05:21;6.10;;;2.42;;
80381;SDS011;69692;55.820;37.490;2023-07-31T07:07:48;6.65;;;2.88;;
80381;SDS011;69692;55.820;37.490;2023-07-31T07:10:15;5.03;;;2.75;;
80381;SDS011;69692;55.820;37.490;2023-07-31T07:12:41;7.00;;;2.58;;
80381;SDS011;69692;55.820;37.490;2023-07-31T07:15:07;6.50;;;3.00;;
80381;SDS011;69692;55.820;37.490;2023-07-31T07:17:33;5.38;;;2.42;;
80381;SDS011;69692;55.820;37.490;2023-07-31T07:19:59;3.40;;;1.98;;
80381;SDS011;69692;55.820;37.490;2023-07-31T07:22:26;4.97;;;1.92;;
80381;SDS011;69692;55.820;37.490;2023-07-31T07:24:52;3.38;;;1.85;;
80381;SDS011;69692;55.820;37.490;2023-07-31T07:27:19;6.13;;;2.75;;
80381;SDS011;69692;55.820;37.490;2023-07-31T07:29:45;4.38;;;1.83;;
80381;SDS011;69692;55.820;37.490;2023-07-31T07:32:11;4.10;;;2.67;;
80381;SDS011;69692;55.820;37.490;2023-07-31T07:34:37;5.75;;;1.90;;
80381;SDS011;69692;55.820;37.490;2023-07-31T07:37:03;5.95;;;1.70;;
80381;SDS011;69692;55.820;37.490;2023-07-31T07:39:29;3.97;;;2.17;;
80381;SDS011;69692;55.820;37.490;2023-07-31T07:41:55;3.33;;;1.70;;
80381;SDS011;69692;55.820;37.490;2023-07-31T07:44:21;2.85;;;2.25;;
80381;SDS011;69692;55.820;37.490;2023-07-31T07:46:47;3.97;;;1.65;;
80381;SDS011;69692;55.820;37.490;2023-07-31T07:49:12;4.18;;;2.33;;
80381;SDS011;69692;55.820;37.490;2023-07-31T07:51:38;2.47;;;1.75;;
80381;SDS011;69692;55.820;37.490;2023-07-31T07:54:04;3.60;;;2.28;;
80381;SDS011;69692;55.820;37.490;2023-07-31T07:56:30;2.67;;;1.67;;
80381;SDS011;69692;55.820;37.490;2023-07-31T07:58:55;2.65;;;1.98;;
80381;SDS011;69692;55.820;37.490;2023-07-31T08:01:21;2.80;;;2.22;;
80381;SDS011;69692;55.820;37.490;2023-07-31T08:03:47;2.15;;;1.40;;
80381;SDS011;69692;55.820;37.490;2023-07-31T08:06:14;3.38;;;1.73;;
80381;SDS011;69692;55.820;37.490;2023-07-31T08:08:40;5.70;;;1.90;;
80381;SDS011;69692;55.820;37.490;2023-07-31T08:11:06;5.28;;;2.40;;
80381;SDS011;69692;55.820;37.490;2023-07-31T08:13:32;3.72;;;1.90;;
80381;SDS011;69692;55.820;37.490;2023-07-31T08:15:57;5.10;;;2.00;;
80381;SDS011;69692;55.820;37.490;2023-07-31T08:18:23;2.83;;;1.77;;
80381;SDS011;69692;55.820;37.490;2023-07-31T08:20:49;5.22;;;2.00;;
80381;SDS011;69692;55.820;37.490;2023-07-31T08:23:15;1.98;;;1.45;;
80381;SDS011;69692;55.820;37.490;2023-07-31T08:25:42;2.70;;;1.63;;
80381;SDS011;69692;55.820;37.490;2023-07-31T08:28:07;3.05;;;1.50;;
80381;SDS011;69692;55.820;37.490;2023-07-31T08:30:33;3.42;;;2.42;;
80381;SDS011;69692;55.820;37.490;2023-07-31T08:32:59;3.50;;;2.20;;
80381;SDS011;69692;55.820;37.490;2023-07-31T08:35:26;5.78;;;2.45;;
80381;SDS011;69692;55.820;37.490;2023-07-31T08:37:55;2.92;;;1.75;;
80381;SDS011;69692;55.820;37.490;2023-07-31T08:40:21;4.15;;;1.70;;
80381;SDS011;69692;55.820;37.490;2023-07-31T08:42:47;2.85;;;1.58;;
80381;SDS011;69692;55.820;37.490;2023-07-31T08:45:15;5.38;;;2.40;;
80381;SDS011;69692;55.820;37.490;2023-07-31T08:47:46;2.95;;;2.15;;
80381;SDS011;69692;55.820;37.490;2023-07-31T08:50:14;4.10;;;2.63;;
80381;SDS011;69692;55.820;37.490;2023-07-31T08:52:42;2.80;;;2.30;;
80381;SDS011;69692;55.820;37.490;2023-07-31T08:55:08;4.43;;;2.83;;
80381;SDS011;69692;55.820;37.490;2023-07-31T08:57:36;2.92;;;2.00;;
80381;SDS011;69692;55.820;37.490;2023-07-31T09:00:06;5.65;;;1.70;;
80381;SDS011;69692;55.820;37.490;2023-07-31T09:05:13;2.58;;;1.90;;
80381;SDS011;69692;55.820;37.490;2023-07-31T09:07:40;2.88;;;1.95;;
80381;SDS011;69692;55.820;37.490;2023-07-31T09:10:12;2.72;;;2.53;;
80381;SDS011;69692;55.820;37.490;2023-07-31T09:12:38;4.10;;;3.20;;
80381;SDS011;69692;55.820;37.490;2023-07-31T09:15:05;3.53;;;2.70;;
80381;SDS011;69692;55.820;37.490;2023-07-31T09:17:32;3.15;;;2.70;;
80381;SDS011;69692;55.820;37.490;2023-07-31T09:22:45;4.57;;;2.38;;
80381;SDS011;69692;55.820;37.490;2023-07-31T09:27:58;3.17;;;2.00;;
80381;SDS011;69692;55.820;37.490;2023-07-31T09:30:27;4.95;;;2.88;;
80381;SDS011;69692;55.820;37.490;2023-07-31T09:33:05;4.05;;;2.50;;
80381;SDS011;69692;55.820;37.490;2023-07-31T09:35:33;3.30;;;2.58;;
80381;SDS011;69692;55.820;37.490;2023-07-31T09:38:03;3.47;;;2.78;;
80381;SDS011;69692;55.820;37.490;2023-07-31T09:42:58;4.82;;;2.95;;
80381;SDS011;69692;55.820;37.490;2023-07-31T09:45:26;3.20;;;2.80;;
80381;SDS011;69692;55.820;37.490;2023-07-31T09:47:53;4.13;;;2.78;;
80381;SDS011;69692;55.820;37.490;2023-07-31T09:50:21;3.42;;;2.67;;
80381;SDS011;69692;55.820;37.490;2023-07-31T09:52:48;4.28;;;2.58;;
80381;SDS011;69692;55.820;37.490;2023-07-31T09:55:14;8.40;;;5.53;;
80381;SDS011;69692;55.820;37.490;2023-07-31T09:57:40;2.83;;;2.08;;
80381;SDS011;69692;55.820;37.490;2023-07-31T10:00:10;4.43;;;2.40;;
80381;SDS011;69692;55.820;37.490;2023-07-31T10:02:40;4.00;;;2.55;;
80381;SDS011;69692;55.820;37.490;2023-07-31T10:05:10;3.10;;;1.90;;
80381;SDS011;69692;55.820;37.490;2023-07-31T10:07:39;5.63;;;4.38;;
80381;SDS011;69692;55.820;37.490;2023-07-31T10:10:08;5.35;;;3.03;;
80381;SDS011;69692;55.820;37.490;2023-07-31T10:12:35;4.25;;;2.45;;
80381;SDS011;69692;55.820;37.490;2023-07-31T10:15:02;5.32;;;1.90;;
80381;SDS011;69692;55.820;37.490;2023-07-31T10:17:32;3.85;;;2.22;;
80381;SDS011;69692;55.820;37.490;2023-07-31T10:20:00;3.65;;;2.10;;
80381;SDS011;69692;55.820;37.490;2023-07-31T10:22:32;2.90;;;1.85;;
80381;SDS011;69692;55.820;37.490;2023-07-31T10:24:59;3.78;;;2.22;;
80381;SDS011;69692;55.820;37.490;2023-07-31T10:27:26;4.35;;;2.13;;
80381;SDS011;69692;55.820;37.490;2023-07-31T10:29:53;4.15;;;3.40;;
80381;SDS011;69692;55.820;37.490;2023-07-31T10:32:22;4.50;;;2.65;;
80381;SDS011;69692;55.820;37.490;2023-07-31T10:34:49;4.20;;;2.65;;
80381;SDS011;69692;55.820;37.490;2023-07-31T10:37:23;3.95;;;3.22;;
80381;SDS011;69692;55.820;37.490;2023-07-31T10:40:05;3.55;;;2.83;;
80381;SDS011;69692;55.820;37.490;2023-07-31T10:42:33;3.10;;;2.72;;
80381;SDS011;69692;55.820;37.490;2023-07-31T10:45:04;3.63;;;2.30;;
80381;SDS011;69692;55.820;37.490;2023-07-31T10:48:06;3.75;;;2.08;;
80381;SDS011;69692;55.820;37.490;2023-07-31T10:50:29;2.83;;;2.35;;
80381;SDS011;69692;55.820;37.490;2023-07-31T10:52:58;3.97;;;1.80;;
80381;SDS011;69692;55.820;37.490;2023-07-31T10:55:27;2.90;;;1.90;;
80381;SDS011;69692;55.820;37.490;2023-07-31T10:57:55;3.67;;;2.70;;
80381;SDS011;69692;55.820;37.490;2023-07-31T11:00:26;3.45;;;2.60;;
80381;SDS011;69692;55.820;37.490;2023-07-31T11:02:57;3.30;;;2.60;;
80381;SDS011;69692;55.820;37.490;2023-07-31T11:08:23;7.10;;;3.05;;
80381;SDS011;69692;55.820;37.490;2023-07-31T11:10:51;4.28;;;2.35;;
80381;SDS011;69692;55.820;37.490;2023-07-31T11:13:55;5.03;;;2.55;;
80381;SDS011;69692;55.820;37.490;2023-07-31T11:16:22;4.82;;;2.30;;
80381;SDS011;69692;55.820;37.490;2023-07-31T11:18:51;7.00;;;3.65;;
80381;SDS011;69692;55.820;37.490;2023-07-31T11:21:19;4.75;;;2.78;;
80381;SDS011;69692;55.820;37.490;2023-07-31T11:23:47;3.38;;;2.50;;
80381;SDS011;69692;55.820;37.490;2023-07-31T11:26:17;4.43;;;3.63;;
80381;SDS011;69692;55.820;37.490;2023-07-31T11:28:46;3.80;;;2.30;;
80381;SDS011;69692;55.820;37.490;2023-07-31T11:31:13;4.93;;;2.30;;
80381;SDS011;69692;55.820;37.490;2023-07-31T11:33:39;5.10;;;2.55;;
80381;SDS011;69692;55.820;37.490;2023-07-31T11:36:05;5.45;;;3.22;;
80381;SDS011;69692;55.820;37.490;2023-07-31T11:38:31;3.47;;;2.50;;
80381;SDS011;69692;55.820;37.490;2023-07-31T11:40:59;6.32;;;2.22;;
80381;SDS011;69692;55.820;37.490;2023-07-31T11:43:27;4.78;;;2.30;;
80381;SDS011;69692;55.820;37.490;2023-07-31T11:45:55;6.07;;;2.65;;
80381;SDS011;69692;55.820;37.490;2023-07-31T11:48:26;3.78;;;2.67;;
80381;SDS011;69692;55.820;37.490;2023-07-31T11:51:00;5.43;;;2.55;;
80381;SDS011;69692;55.820;37.490;2023-07-31T11:53:36;2.90;;;2.25;;
80381;SDS011;69692;55.820;37.490;2023-07-31T11:56:08;5.70;;;2.13;;
80381;SDS011;69692;55.820;37.490;2023-07-31T11:58:36;5.00;;;3.25;;
80381;SDS011;69692;55.820;37.490;2023-07-31T12:01:03;4.20;;;2.30;;
80381;SDS011;69692;55.820;37.490;2023-07-31T12:03:30;7.72;;;3.10;;
80381;SDS011;69692;55.820;37.490;2023-07-31T12:05:58;4.93;;;3.00;;
80381;SDS011;69692;55.820;37.490;2023-07-31T12:08:24;4.25;;;3.10;;
80381;SDS011;69692;55.820;37.490;2023-07-31T12:10:51;8.05;;;2.95;;
80381;SDS011;69692;55.820;37.490;2023-07-31T12:13:21;3.65;;;2.90;;
80381;SDS011;69692;55.820;37.490;2023-07-31T12:15:54;6.10;;;2.85;;
80381;SDS011;69692;55.820;37.490;2023-07-31T12:18:25;4.50;;;2.85;;
80381;SDS011;69692;55.820;37.490;2023-07-31T12:20:59;8.57;;;3.15;;
80381;SDS011;69692;55.820;37.490;2023-07-31T12:23:26;5.88;;;3.30;;
80381;SDS011;69692;55.820;37.490;2023-07-31T12:26:01;6.28;;;3.08;;
80381;SDS011;69692;55.820;37.490;2023-07-31T12:31:00;6.28;;;2.63;;
80381;SDS011;69692;55.820;37.490;2023-07-31T12:33:33;4.72;;;2.60;;
80381;SDS011;69692;55.820;37.490;2023-07-31T12:36:01;6.18;;;2.85;;
80381;SDS011;69692;55.820;37.490;2023-07-31T12:38:29;4.50;;;3.45;;
80381;SDS011;69692;55.820;37.490;2023-07-31T12:40:55;5.78;;;3.25;;
80381;SDS011;69692;55.820;37.490;2023-07-31T12:43:21;5.47;;;2.40;;
80381;SDS011;69692;55.820;37.490;2023-07-31T12:45:47;7.13;;;3.35;;
80381;SDS011;69692;55.820;37.490;2023-07-31T12:48:13;8.05;;;3.38;;
80381;SDS011;69692;55.820;37.490;2023-07-31T12:50:39;5.22;;;3.53;;
80381;SDS011;69692;55.820;37.490;2023-07-31T12:53:05;3.97;;;3.10;;
80381;SDS011;69692;55.820;37.490;2023-07-31T12:55:34;4.30;;;2.45;;
80381;SDS011;69692;55.820;37.490;2023-07-31T12:58:02;5.18;;;3.22;;
80381;SDS011;69692;55.820;37.490;2023-07-31T13:00:28;4.43;;;3.10;;
80381;SDS011;69692;55.820;37.490;2023-07-31T13:02:54;6.10;;;2.83;;
80381;SDS011;69692;55.820;37.490;2023-07-31T13:05:20;4.35;;;3.33;;
80381;SDS011;69692;55.820;37.490;2023-07-31T13:07:47;6.82;;;3.13;;
80381;SDS011;69692;55.820;37.490;2023-07-31T13:10:13;5.10;;;2.67;;
80381;SDS011;69692;55.820;37.490;2023-07-31T13:12:39;4.43;;;3.20;;
80381;SDS011;69692;55.820;37.490;2023-07-31T13:15:06;5.57;;;3.33;;
80381;SDS011;69692;55.820;37.490;2023-07-31T13:17:32;5.20;;;2.70;;
80381;SDS011;69692;55.820;37.490;2023-07-31T13:19:58;7.15;;;3.58;;
80381;SDS011;69692;55.820;37.490;2023-07-31T13:22:24;5.70;;;2.85;;
80381;SDS011;69692;55.820;37.490;2023-07-31T13:24:50;7.47;;;3.83;;
80381;SDS011;69692;55.820;37.490;2023-07-31T13:27:16;7.30;;;3.25;;
80381;SDS011;69692;55.820;37.490;2023-07-31T13:29:44;4.38;;;3.03;;
80381;SDS011;69692;55.820;37.490;2023-07-31T13:32:10;4.63;;;3.83;;
80381;SDS011;69692;55.820;37.490;2023-07-31T13:34:36;6.95;;;3.60;;
80381;SDS011;69692;55.820;37.490;2023-07-31T13:37:03;10.30;;;3.70;;
80381;SDS011;69692;55.820;37.490;2023-07-31T13:39:31;8.27;;;3.13;;
80381;SDS011;69692;55.820;37.490;2023-07-31T13:41:59;6.07;;;3.95;;
80381;SDS011;69692;55.820;37.490;2023-07-31T13:44:25;7.05;;;3.20;;
80381;SDS011;69692;55.820;37.490;2023-07-31T13:46:51;5.78;;;2.72;;
80381;SDS011;69692;55.820;37.490;2023-07-31T13:49:17;6.22;;;3.45;;
80381;SDS011;69692;55.820;37.490;2023-07-31T13:51:43;6.60;;;3.17;;
80381;SDS011;69692;55.820;37.490;2023-07-31T13:54:09;4.32;;;2.78;;
80381;SDS011;69692;55.820;37.490;2023-07-31T13:56:37;4.10;;;2.60;;
80381;SDS011;69692;55.820;37.490;2023-07-31T13:59:03;6.07;;;2.33;;
80381;SDS011;69692;55.820;37.490;2023-07-31T14:01:29;6.10;;;2.92;;
80381;SDS011;69692;55.820;37.490;2023-07-31T14:03:55;5.82;;;2.33;;
80381;SDS011;69692;55.820;37.490;2023-07-31T14:06:21;9.18;;;3.30;;
80381;SDS011;69692;55.820;37.490;2023-07-31T14:08:47;3.92;;;2.95;;
80381;SDS011;69692;55.820;37.490;2023-07-31T14:11:13;6.15;;;3.17;;
80381;SDS011;69692;55.820;37.490;2023-07-31T14:13:38;4.53;;;2.63;;
80381;SDS011;69692;55.820;37.490;2023-07-31T14:16:04;3.35;;;2.20;;
80381;SDS011;69692;55.820;37.490;2023-07-31T14:18:30;4.57;;;2.90;;
80381;SDS011;69692;55.820;37.490;2023-07-31T14:20:56;6.25;;;3.00;;
80381;SDS011;69692;55.820;37.490;2023-07-31T14:23:21;6.75;;;2.92;;
80381;SDS011;69692;55.820;37.490;2023-07-31T14:25:47;6.53;;;3.03;;
80381;SDS011;69692;55.820;37.490;2023-07-31T14:28:13;7.95;;;3.13;;
80381;SDS011;69692;55.820;37.490;2023-07-31T14:30:39;4.13;;;2.70;;
80381;SDS011;69692;55.820;37.490;2023-07-31T14:33:05;7.93;;;2.88;;
80381;SDS011;69692;55.820;37.490;2023-07-31T14:35:31;5.40;;;2.88;;
80381;SDS011;69692;55.820;37.490;2023-07-31T14:37:57;5.00;;;2.80;;
80381;SDS011;69692;55.820;37.490;2023-07-31T14:40:23;4.00;;;2.67;;
80381;SDS011;69692;55.820;37.490;2023-07-31T14:42:49;6.32;;;3.20;;
80381;SDS011;69692;55.820;37.490;2023-07-31T14:45:15;7.38;;;2.63;;
80381;SDS011;69692;55.820;37.490;2023-07-31T14:47:41;5.35;;;3.60;;
80381;SDS011;69692;55.820;37.490;2023-07-31T14:50:07;5.82;;;3.40;;
80381;SDS011;69692;55.820;37.490;2023-07-31T14:52:32;6.80;;;3.60;;
80381;SDS011;69692;55.820;37.490;2023-07-31T14:54:58;7.55;;;3.47;;